createdAt,value
2018-07-08T00:00:58.903Z,35.78
2018-07-08T00:03:28.230Z,35.19
2018-07-08T00:05:57.678Z,35.54
2018-07-08T00:08:27.196Z,36.65
2018-07-08T00:10:58.370Z,35.38
2018-07-08T00:13:27.670Z,35.42
2018-07-08T00:15:56.923Z,35.25
2018-07-08T00:18:26.618Z,36.10
2018-07-08T00:20:56.585Z,36.03
2018-07-08T00:23:25.945Z,36.55
2018-07-08T00:25:55.194Z,36.18
2018-07-08T00:28:24.432Z,35.75
2018-07-08T00:30:53.714Z,36.28
2018-07-08T00:33:22.878Z,37.44
2018-07-08T00:35:52.238Z,37.65
2018-07-08T00:38:21.475Z,38.78
2018-07-08T00:40:50.719Z,38.96
2018-07-08T00:43:19.986Z,38.11
2018-07-08T00:45:49.207Z,39.51
2018-07-08T00:48:18.463Z,39.24
2018-07-08T00:50:47.929Z,39.80
2018-07-08T00:53:17.277Z,38.48
2018-07-08T00:55:46.618Z,38.43
2018-07-08T00:58:15.823Z,38.09
2018-07-08T01:00:45.278Z,37.53
2018-07-08T01:03:14.514Z,37.41
2018-07-08T01:05:43.735Z,37.31
2018-07-08T01:08:12.991Z,38.22
2018-07-08T01:10:42.342Z,38.09
2018-07-08T01:13:11.636Z,38.41
2018-07-08T01:15:40.931Z,37.97
2018-07-08T01:18:10.203Z,38.01
2018-07-08T01:20:39.441Z,38.03
2018-07-08T01:23:08.716Z,37.96
2018-07-08T01:25:49.066Z,37.79
2018-07-08T01:28:18.273Z,38.02
2018-07-08T01:30:47.672Z,38.41
2018-07-08T01:33:16.869Z,39.27
2018-07-08T01:35:46.219Z,39.43
2018-07-08T01:38:15.475Z,39.15
2018-07-08T01:40:45.616Z,39.56
2018-07-08T01:43:14.916Z,39.63
2018-07-08T01:45:44.215Z,40.63
2018-07-08T01:48:13.522Z,40.09
2018-07-08T01:50:42.826Z,40.15
2018-07-08T01:53:12.193Z,39.54
2018-07-08T01:55:41.552Z,40.35
2018-07-08T01:58:10.932Z,39.76
2018-07-08T02:00:40.330Z,39.60
2018-07-08T02:03:09.906Z,39.27
2018-07-08T02:05:39.344Z,39.68
2018-07-08T02:08:08.710Z,40.82
2018-07-08T02:10:38.294Z,41.61
2018-07-08T02:13:07.550Z,40.68
2018-07-08T02:15:37.112Z,40.16
2018-07-08T02:18:06.449Z,40.06
2018-07-08T02:20:35.858Z,40.16
2018-07-08T02:23:05.147Z,40.50
2018-07-08T02:25:34.470Z,40.18
2018-07-08T02:28:03.930Z,40.37
2018-07-08T02:30:33.178Z,40.73
2018-07-08T02:33:02.503Z,40.73
2018-07-08T02:35:32.369Z,41.24
2018-07-08T02:38:01.652Z,40.96
2018-07-08T02:40:30.861Z,41.11
2018-07-08T02:43:00.040Z,42.61
2018-07-08T02:45:29.258Z,42.53
2018-07-08T02:47:58.447Z,43.07
2018-07-08T02:50:27.789Z,43.73
2018-07-08T02:52:57.044Z,44.23
2018-07-08T02:55:26.272Z,43.04
2018-07-08T02:57:55.585Z,43.02
2018-07-08T03:00:24.847Z,44.52
2018-07-08T03:02:54.103Z,43.31
2018-07-08T03:05:23.349Z,43.19
2018-07-08T03:07:52.703Z,42.97
2018-07-08T03:10:21.970Z,45.86
2018-07-08T03:12:51.263Z,45.64
2018-07-08T03:15:20.534Z,44.72
2018-07-08T03:17:49.785Z,43.74
2018-07-08T03:20:19.048Z,43.20
2018-07-08T03:22:48.369Z,43.74
2018-07-08T03:25:17.731Z,42.95
2018-07-08T03:27:46.973Z,43.29
2018-07-08T03:30:16.252Z,43.11
2018-07-08T03:32:45.603Z,43.78
2018-07-08T03:35:15.031Z,43.53
2018-07-08T03:37:44.291Z,43.01
2018-07-08T03:40:13.591Z,43.07
2018-07-08T03:42:43.137Z,42.64
2018-07-08T03:45:12.345Z,45.37
2018-07-08T03:47:41.603Z,46.97
2018-07-08T03:50:10.902Z,45.23
2018-07-08T03:52:40.176Z,44.27
2018-07-08T03:55:09.486Z,44.89
2018-07-08T03:57:38.786Z,44.21
2018-07-08T04:00:08.093Z,43.55
2018-07-08T04:02:37.392Z,43.24
2018-07-08T04:05:06.696Z,43.52
2018-07-08T04:07:36.010Z,43.54
2018-07-08T04:10:05.290Z,43.91
2018-07-08T04:12:34.601Z,43.18
2018-07-08T04:15:03.861Z,43.56
2018-07-08T04:17:33.292Z,43.46
2018-07-08T04:20:02.674Z,43.41
2018-07-08T04:22:32.022Z,43.45
2018-07-08T04:25:01.278Z,43.21
2018-07-08T04:27:30.483Z,42.38
2018-07-08T04:29:59.652Z,41.84
2018-07-08T04:32:28.890Z,41.54
2018-07-08T04:34:58.131Z,37.69
2018-07-08T04:37:27.383Z,36.65
2018-07-08T04:39:56.691Z,35.13
2018-07-08T04:42:26.001Z,36.08
2018-07-08T04:44:55.342Z,36.10
2018-07-08T04:47:24.719Z,36.99
2018-07-08T04:49:53.950Z,37.29
2018-07-08T04:52:23.507Z,37.61
2018-07-08T04:54:52.871Z,37.25
2018-07-08T04:57:22.310Z,37.21
2018-07-08T04:59:51.556Z,34.40
2018-07-08T05:02:20.797Z,34.39
2018-07-08T05:04:50.274Z,33.36
2018-07-08T05:07:19.817Z,31.37
2018-07-08T05:09:49.181Z,29.76
2018-07-08T05:12:18.582Z,29.28
2018-07-08T05:14:47.810Z,27.73
2018-07-08T05:17:17.126Z,28.38
2018-07-08T05:19:46.398Z,27.15
2018-07-08T05:22:15.618Z,27.95
2018-07-08T05:24:44.883Z,27.72
2018-07-08T05:27:14.110Z,27.16
2018-07-08T05:29:43.423Z,27.42
2018-07-08T05:32:12.842Z,26.28
2018-07-08T05:34:42.107Z,27.93
2018-07-08T05:37:11.737Z,28.13
2018-07-08T05:39:41.002Z,28.96
2018-07-08T05:42:10.229Z,29.46
2018-07-08T05:44:39.424Z,29.47
2018-07-08T05:47:08.743Z,29.70
2018-07-08T05:49:38.092Z,26.07
2018-07-08T05:52:07.335Z,22.55
2018-07-08T05:54:36.752Z,20.24
2018-07-08T05:57:06.250Z,19.78
2018-07-08T05:59:35.492Z,18.13
2018-07-08T06:02:04.843Z,17.59
2018-07-08T06:04:35.571Z,16.98
2018-07-08T06:07:04.979Z,18.35
2018-07-08T06:09:34.253Z,17.29
2018-07-08T06:12:03.494Z,17.59
2018-07-08T06:14:32.832Z,19.20
2018-07-08T06:17:02.083Z,20.80
2018-07-08T06:19:31.366Z,21.16
2018-07-08T06:22:00.685Z,21.38
2018-07-08T06:24:29.941Z,22.10
2018-07-08T06:26:59.167Z,21.81
2018-07-08T06:29:28.420Z,21.71
2018-07-08T06:31:57.737Z,21.85
2018-07-08T06:34:27.080Z,24.98
2018-07-08T06:36:56.304Z,23.22
2018-07-08T06:39:25.575Z,23.68
2018-07-08T06:41:54.817Z,23.12
2018-07-08T06:44:23.984Z,23.42
2018-07-08T06:46:53.270Z,22.86
2018-07-08T06:49:22.493Z,21.12
2018-07-08T06:51:51.855Z,20.18
2018-07-08T06:54:21.713Z,20.93
2018-07-08T06:56:51.143Z,19.71
2018-07-08T06:59:20.494Z,19.01
2018-07-08T07:01:49.779Z,19.31
2018-07-08T07:04:19.297Z,21.17
2018-07-08T07:06:48.707Z,22.51
2018-07-08T07:09:18.048Z,23.39
2018-07-08T07:11:47.379Z,24.29
2018-07-08T07:14:16.635Z,24.02
2018-07-08T07:16:45.883Z,23.80
2018-07-08T07:19:15.105Z,23.41
2018-07-08T07:21:44.466Z,23.26
2018-07-08T07:24:13.694Z,22.48
2018-07-08T07:26:42.974Z,23.55
2018-07-08T07:29:12.218Z,22.63
2018-07-08T07:31:41.453Z,23.50
2018-07-08T07:34:10.716Z,23.59
2018-07-08T07:36:39.956Z,23.26
2018-07-08T07:39:09.185Z,22.71
2018-07-08T07:41:38.473Z,22.41
2018-07-08T07:44:08.109Z,22.40
2018-07-08T07:46:37.428Z,22.33
2018-07-08T07:49:06.927Z,21.96
2018-07-08T07:51:36.402Z,20.44
2018-07-08T07:54:05.605Z,20.28
2018-07-08T07:56:34.920Z,20.36
2018-07-08T07:59:04.220Z,20.65
2018-07-08T08:01:33.499Z,20.44
2018-07-08T08:04:02.837Z,20.87
2018-07-08T08:06:32.078Z,21.02
2018-07-08T08:09:01.327Z,20.14
2018-07-08T08:11:30.695Z,20.04
2018-07-08T08:14:04.434Z,19.83
2018-07-08T08:16:33.793Z,19.93
2018-07-08T08:19:03.708Z,19.68
2018-07-08T08:21:33.008Z,21.32
2018-07-08T08:24:02.258Z,21.13
2018-07-08T08:26:31.682Z,20.31
2018-07-08T08:29:00.954Z,21.09
2018-07-08T08:31:30.234Z,19.60
2018-07-08T08:35:12.522Z,19.47
2018-07-08T08:37:57.456Z,17.68
2018-07-08T08:40:27.503Z,17.82
2018-07-08T08:42:56.668Z,17.76
2018-07-08T08:45:27.334Z,18.96
2018-07-08T08:47:56.567Z,19.25
2018-07-08T08:50:26.030Z,19.55
2018-07-08T08:52:55.355Z,19.29
2018-07-08T08:55:24.767Z,18.29
2018-07-08T08:57:55.335Z,18.54
2018-07-08T09:00:24.630Z,19.02
2018-07-08T09:02:53.956Z,17.83
2018-07-08T09:05:23.237Z,17.93
2018-07-08T09:07:52.464Z,17.34
2018-07-08T09:10:21.727Z,16.04
2018-07-08T09:12:50.965Z,17.40
2018-07-08T09:15:20.219Z,16.77
2018-07-08T09:17:49.477Z,16.94
2018-07-08T09:20:18.811Z,17.23
2018-07-08T09:22:48.112Z,16.75
2018-07-08T09:25:17.926Z,18.28
2018-07-08T09:27:47.224Z,16.52
2018-07-08T09:30:16.518Z,15.60
2018-07-08T09:32:45.823Z,15.19
2018-07-08T09:35:15.924Z,15.68
2018-07-08T09:37:45.091Z,15.99
2018-07-08T09:40:14.458Z,15.85
2018-07-08T09:42:43.831Z,16.47
2018-07-08T09:45:13.166Z,16.26
2018-07-08T09:47:42.422Z,15.17
2018-07-08T09:50:11.647Z,15.64
2018-07-08T09:52:41.088Z,15.23
2018-07-08T09:55:10.331Z,16.13
2018-07-08T09:57:39.806Z,16.55
2018-07-08T10:00:09.063Z,16.85
2018-07-08T10:02:38.331Z,15.78
2018-07-08T10:05:07.803Z,14.67
2018-07-08T10:07:37.149Z,15.95
2018-07-08T10:10:06.486Z,15.89
2018-07-08T10:12:35.766Z,16.61
2018-07-08T10:15:05.063Z,16.64
2018-07-08T10:17:34.924Z,16.61
2018-07-08T10:20:03.938Z,15.63
2018-07-08T10:22:33.022Z,14.53
2018-07-08T10:25:02.007Z,15.02
2018-07-08T10:28:40.688Z,14.30
2018-07-08T10:31:15.062Z,12.65
2018-07-08T10:33:54.439Z,10.88
2018-07-08T10:36:28.450Z,10.42
2018-07-08T10:38:57.966Z,10.92
2018-07-08T10:41:27.356Z,10.43
2018-07-08T10:43:56.824Z,9.52
2018-07-08T10:46:26.619Z,9.13
2018-07-08T10:48:56.192Z,10.44
2018-07-08T10:51:25.916Z,11.36
2018-07-08T10:53:55.828Z,11.12
2018-07-08T10:56:25.375Z,12.16
2018-07-08T10:58:55.272Z,12.80
2018-07-08T11:01:24.780Z,12.88
2018-07-08T11:03:54.284Z,12.38
2018-07-08T11:06:23.743Z,12.41
2018-07-08T11:08:53.364Z,12.35
2018-07-08T11:11:22.870Z,12.30
2018-07-08T11:13:52.313Z,13.41
2018-07-08T11:16:21.967Z,12.39
2018-07-08T11:18:51.424Z,12.68
2018-07-08T11:21:21.065Z,12.21
2018-07-08T11:23:50.468Z,12.05
2018-07-08T11:26:19.971Z,11.34
2018-07-08T11:28:49.456Z,12.05
2018-07-08T11:31:19.102Z,12.47
2018-07-08T11:33:48.554Z,12.58
2018-07-08T11:36:18.095Z,12.36
2018-07-08T11:38:47.556Z,11.99
2018-07-08T11:41:17.105Z,10.55
2018-07-08T11:43:46.805Z,11.08
2018-07-08T11:46:16.321Z,11.94
2018-07-08T11:48:45.793Z,11.58
2018-07-08T11:51:15.265Z,11.39
2018-07-08T11:53:45.030Z,11.73
2018-07-08T11:56:15.105Z,10.29
2018-07-08T11:58:45.416Z,11.16
2018-07-08T12:01:15.441Z,10.88
2018-07-08T12:03:44.991Z,10.83
2018-07-08T12:06:14.651Z,10.83
2018-07-08T12:08:44.137Z,10.94
2018-07-08T12:11:13.743Z,9.84
2018-07-08T12:13:43.188Z,10.23
2018-07-08T12:16:12.749Z,9.29
2018-07-08T12:18:42.112Z,9.81
2018-07-08T12:21:11.490Z,10.35
2018-07-08T12:23:42.643Z,9.57
2018-07-08T12:26:12.456Z,10.57
2018-07-08T12:28:41.827Z,9.52
2018-07-08T12:31:11.262Z,9.56
2018-07-08T12:33:40.632Z,9.43
2018-07-08T12:36:10.456Z,9.71
2018-07-08T12:38:39.916Z,9.26
2018-07-08T12:41:09.445Z,9.76
2018-07-08T12:43:38.896Z,9.94
2018-07-08T12:46:08.055Z,9.53
2018-07-08T12:48:37.492Z,9.17
2018-07-08T12:51:07.072Z,9.54
2018-07-08T12:53:36.698Z,9.88
2018-07-08T12:56:05.993Z,10.59
2018-07-08T12:58:35.309Z,9.70
2018-07-08T13:01:04.585Z,9.26
2018-07-08T13:03:33.838Z,9.78
2018-07-08T13:06:03.299Z,10.34
2018-07-08T13:08:32.511Z,10.09
2018-07-08T13:11:01.882Z,10.12
2018-07-08T13:13:31.058Z,10.06
2018-07-08T13:16:00.368Z,10.79
2018-07-08T13:18:29.691Z,10.91
2018-07-08T13:20:59.091Z,11.76
2018-07-08T13:23:28.269Z,11.63
2018-07-08T13:25:57.606Z,11.26
2018-07-08T13:28:27.007Z,10.78
2018-07-08T13:30:56.407Z,11.14
2018-07-08T13:33:25.922Z,11.77
2018-07-08T13:35:55.206Z,11.37
2018-07-08T13:38:24.466Z,11.40
2018-07-08T13:40:53.711Z,11.34
2018-07-08T13:43:23.081Z,11.76
2018-07-08T13:45:52.383Z,10.59
2018-07-08T13:48:21.570Z,10.96
2018-07-08T13:50:50.888Z,11.12
2018-07-08T13:53:20.082Z,11.62
2018-07-08T13:55:50.383Z,11.20
2018-07-08T13:58:19.585Z,10.86
2018-07-08T14:00:49.251Z,11.42
2018-07-08T14:03:18.494Z,11.39
2018-07-08T14:05:47.658Z,11.48
2018-07-08T14:08:16.917Z,11.71
2018-07-08T14:10:46.484Z,12.12
2018-07-08T14:13:15.687Z,12.28
2018-07-08T14:15:45.042Z,11.28
2018-07-08T14:18:14.285Z,11.65
2018-07-08T14:20:43.651Z,11.82
2018-07-08T14:23:12.974Z,12.94
2018-07-08T14:25:42.277Z,12.51
2018-07-08T14:28:11.493Z,11.68
2018-07-08T14:30:40.823Z,12.29
2018-07-08T14:33:10.034Z,11.96
2018-07-08T14:35:39.333Z,11.05
2018-07-08T14:38:08.586Z,11.57
2018-07-08T14:40:37.978Z,11.81
2018-07-08T14:43:07.231Z,11.59
2018-07-08T14:45:36.644Z,10.91
2018-07-08T14:48:05.934Z,12.01
2018-07-08T14:50:35.185Z,11.99
2018-07-08T14:53:04.639Z,12.07
2018-07-08T14:55:33.915Z,11.13
2018-07-08T14:58:03.151Z,11.59
2018-07-08T15:00:32.418Z,11.99
2018-07-08T15:03:01.855Z,11.33
2018-07-08T15:05:31.214Z,12.00
2018-07-08T15:08:01.008Z,11.72
2018-07-08T15:10:30.574Z,11.71
2018-07-08T15:12:59.966Z,11.62
2018-07-08T15:15:29.306Z,11.33
2018-07-08T15:17:58.683Z,11.20
2018-07-08T15:20:27.946Z,11.16
2018-07-08T15:22:57.189Z,10.33
2018-07-08T15:25:26.466Z,10.20
2018-07-08T15:27:55.772Z,10.76
2018-07-08T15:30:25.066Z,10.84
2018-07-08T15:32:54.387Z,10.61
2018-07-08T15:35:23.609Z,10.50
2018-07-08T15:37:52.903Z,10.40
2018-07-08T15:40:22.146Z,10.66
2018-07-08T15:42:51.690Z,10.92
2018-07-08T15:45:20.982Z,11.13
2018-07-08T15:47:50.384Z,11.17
2018-07-08T15:50:19.670Z,10.83
2018-07-08T15:52:48.998Z,10.61
2018-07-08T15:55:18.370Z,11.05
2018-07-08T15:57:47.595Z,11.16
2018-07-08T16:00:16.885Z,11.23
2018-07-08T16:02:46.571Z,11.70
2018-07-08T16:05:15.779Z,11.92
2018-07-08T16:07:45.122Z,11.90
2018-07-08T16:10:14.393Z,11.67
2018-07-08T16:12:43.696Z,11.74
2018-07-08T16:15:12.997Z,12.48
2018-07-08T16:17:42.603Z,12.28
2018-07-08T16:20:11.897Z,12.28
2018-07-08T16:22:41.221Z,11.88
2018-07-08T16:25:10.493Z,12.38
2018-07-08T16:27:39.749Z,12.65
2018-07-08T16:30:08.970Z,12.88
2018-07-08T16:32:38.413Z,12.52
2018-07-08T16:35:07.856Z,12.94
2018-07-08T16:37:37.113Z,12.91
2018-07-08T16:40:06.467Z,13.62
2018-07-08T16:42:35.711Z,12.72
2018-07-08T16:45:04.958Z,12.45
2018-07-08T16:47:34.301Z,12.88
2018-07-08T16:50:03.590Z,13.79
2018-07-08T16:52:33.005Z,13.45
2018-07-08T16:55:02.295Z,14.10
2018-07-08T16:57:31.729Z,13.96
2018-07-08T17:00:01.021Z,13.65
2018-07-08T17:02:30.451Z,14.33
2018-07-08T17:04:59.562Z,13.46
2018-07-08T17:07:28.913Z,14.32
2018-07-08T17:09:58.273Z,14.21
2018-07-08T17:12:27.544Z,14.62
2018-07-08T17:14:56.771Z,14.80
2018-07-08T17:17:25.761Z,15.05
2018-07-08T17:19:55.907Z,14.49
2018-07-08T17:22:25.510Z,14.63
2018-07-08T17:24:55.135Z,15.42
2018-07-08T17:27:24.567Z,15.11
2018-07-08T17:29:53.963Z,15.47
2018-07-08T17:32:23.266Z,15.76
2018-07-08T17:34:52.526Z,15.83
2018-07-08T17:37:21.765Z,16.17
2018-07-08T17:39:51.103Z,15.99
2018-07-08T17:42:20.518Z,15.94
2018-07-08T17:44:49.924Z,15.73
2018-07-08T17:47:19.287Z,16.48
2018-07-08T17:49:48.558Z,16.48
2018-07-08T17:52:17.875Z,17.15
2018-07-08T17:54:47.163Z,16.65
2018-07-08T17:57:16.573Z,16.66
2018-07-08T17:59:45.823Z,16.80
2018-07-08T18:02:15.083Z,16.87
2018-07-08T18:04:44.457Z,17.20
2018-07-08T18:07:13.790Z,17.08
2018-07-08T18:09:43.034Z,17.64
2018-07-08T18:12:12.377Z,17.38
2018-07-08T18:14:41.624Z,17.47
2018-07-08T18:17:10.870Z,17.25
2018-07-08T18:19:40.255Z,17.38
2018-07-08T18:22:09.463Z,17.14
2018-07-08T18:24:38.789Z,17.22
2018-07-08T18:27:08.054Z,17.31
2018-07-08T18:29:37.386Z,17.35
2018-07-08T18:32:06.862Z,17.41
2018-07-08T18:34:37.105Z,17.54
2018-07-08T18:37:06.362Z,17.66
2018-07-08T18:39:35.740Z,18.09
2018-07-08T18:42:05.351Z,17.59
2018-07-08T18:44:35.128Z,17.62
2018-07-08T18:47:04.810Z,18.19
2018-07-08T18:49:34.894Z,17.99
2018-07-08T18:52:04.118Z,18.31
2018-07-08T18:54:33.472Z,18.45
2018-07-08T18:57:02.734Z,18.53
2018-07-08T18:59:32.333Z,18.11
2018-07-08T19:02:01.535Z,18.45
2018-07-08T19:04:31.253Z,17.79
2018-07-08T19:07:00.530Z,18.63
2018-07-08T19:09:29.758Z,18.41
2018-07-08T19:11:59.022Z,18.38
2018-07-08T19:14:28.362Z,18.65
2018-07-08T19:16:57.681Z,18.63
2018-07-08T19:19:27.071Z,18.55
2018-07-08T19:21:56.355Z,18.62
2018-07-08T19:24:25.598Z,18.76
2018-07-08T19:26:54.750Z,18.54
2018-07-08T19:29:24.184Z,18.54
2018-07-08T19:31:53.535Z,18.76
2018-07-08T19:34:22.771Z,18.67
2018-07-08T19:36:52.020Z,18.96
2018-07-08T19:39:21.282Z,19.28
2018-07-08T19:41:51.028Z,19.15
2018-07-08T19:44:21.216Z,19.30
2018-07-08T19:46:50.681Z,19.42
2018-07-08T19:49:19.922Z,19.58
2018-07-08T19:51:49.263Z,19.66
2018-07-08T19:54:18.626Z,19.97
2018-07-08T19:56:47.896Z,19.94
2018-07-08T19:59:17.132Z,19.57
2018-07-08T20:01:46.374Z,19.91
2018-07-08T20:04:15.608Z,20.13
2018-07-08T20:06:44.758Z,19.99
2018-07-08T20:09:13.909Z,20.56
2018-07-08T20:11:43.142Z,20.55
2018-07-08T20:14:12.524Z,20.50
2018-07-08T20:16:41.808Z,21.12
2018-07-08T20:19:11.216Z,21.48
2018-07-08T20:21:40.990Z,21.74
2018-07-08T20:24:10.242Z,22.01
2018-07-08T20:26:39.481Z,21.56
2018-07-08T20:29:08.622Z,21.74
2018-07-08T20:31:37.874Z,21.99
2018-07-08T20:34:07.102Z,22.46
2018-07-08T20:36:36.363Z,22.62
2018-07-08T20:39:06.902Z,22.74
2018-07-08T20:41:36.657Z,23.11
2018-07-08T20:44:06.082Z,23.26
2018-07-08T20:46:35.434Z,23.68
2018-07-08T20:49:04.676Z,23.79
2018-07-08T20:51:34.167Z,24.26
2018-07-08T20:54:03.469Z,24.21
2018-07-08T20:56:32.773Z,24.60
2018-07-08T20:59:02.192Z,24.80
2018-07-08T21:01:31.544Z,25.10
2018-07-08T21:04:00.990Z,25.42
2018-07-08T21:06:30.353Z,25.51
2018-07-08T21:08:59.594Z,26.28
2018-07-08T21:11:29.866Z,27.92
2018-07-08T21:13:59.220Z,26.88
2018-07-08T21:16:28.507Z,26.10
2018-07-08T21:18:57.831Z,25.96
2018-07-08T21:24:30.398Z,26.45
2018-07-08T21:26:59.697Z,26.76
2018-07-08T21:29:31.283Z,26.81
2018-07-08T21:32:00.595Z,26.56
2018-07-08T21:34:29.976Z,26.54
2018-07-08T21:36:59.286Z,26.30
2018-07-08T21:39:28.549Z,26.60
2018-07-08T21:41:57.845Z,26.88
2018-07-08T21:44:27.244Z,26.92
2018-07-08T21:46:56.510Z,27.59
2018-07-08T21:49:25.730Z,27.90
2018-07-08T21:51:54.915Z,28.06
2018-07-08T21:54:24.162Z,27.72
2018-07-08T21:56:53.695Z,28.41
2018-07-08T21:59:23.054Z,28.56
2018-07-08T22:02:00.237Z,28.52
2018-07-08T22:04:29.245Z,28.44
2018-07-08T22:07:03.325Z,28.09
2018-07-08T22:09:32.305Z,28.32
2018-07-08T22:12:01.324Z,28.26
2018-07-08T22:14:30.328Z,28.49
2018-07-08T22:16:59.491Z,28.83
2018-07-08T22:19:28.886Z,28.12
2018-07-08T22:21:58.077Z,28.26
2018-07-08T22:24:27.558Z,28.16
2018-07-08T22:26:56.916Z,28.46
2018-07-08T22:29:26.250Z,28.24
2018-07-08T22:31:55.594Z,28.91
2018-07-08T22:34:24.913Z,29.23
2018-07-08T22:36:54.197Z,29.57
2018-07-08T22:39:23.466Z,30.17
2018-07-08T22:41:52.895Z,30.47
2018-07-08T22:44:22.161Z,30.24
2018-07-08T22:46:51.486Z,30.32
2018-07-08T22:49:20.723Z,30.81
2018-07-08T22:51:50.111Z,30.28
2018-07-08T22:54:19.444Z,30.70
2018-07-08T22:56:48.736Z,30.64
2018-07-08T22:59:18.049Z,30.85
2018-07-08T23:01:58.094Z,31.44
2018-07-08T23:04:27.395Z,30.73
2018-07-08T23:06:56.695Z,30.68
2018-07-08T23:09:26.014Z,29.77
2018-07-08T23:11:55.373Z,29.97
2018-07-08T23:14:24.708Z,29.49
2018-07-08T23:16:53.976Z,29.36
2018-07-08T23:19:23.299Z,30.10
2018-07-08T23:21:52.595Z,32.37
2018-07-08T23:24:21.889Z,32.56
2018-07-08T23:26:51.426Z,32.43
2018-07-08T23:29:20.774Z,31.67
2018-07-08T23:31:50.171Z,31.13
2018-07-08T23:34:19.513Z,31.42
2018-07-08T23:36:48.947Z,31.92
2018-07-08T23:39:18.203Z,31.47
2018-07-08T23:41:47.626Z,31.65
2018-07-08T23:44:17.014Z,31.17
2018-07-08T23:46:46.553Z,31.20
2018-07-08T23:49:15.830Z,30.94
2018-07-08T23:51:45.234Z,31.57
2018-07-08T23:54:14.797Z,31.02
2018-07-08T23:56:44.126Z,31.64
2018-07-08T23:59:13.286Z,31.88
